PWSweather.com
Personal Weather Stations
Station Observations
SHAHALMS1
Eftra, Falkenberg, HA

EftraFalkenberg, HA

Lat: 56.85, Lon: 12.65

Elevation: 140

Station Type:

http://hem.passagen.se/risarp101

High Low Average
Temperature 72.1°F22.3°C 55.8°F13.2°C 66.3°F19.1°C
Dew Point 64.2°F17.9°C 51.0°F10.6°C 59.5°F15.3°C
Winds 7.1 mph 11.4 kmh Calm Calm 3.0 mph SSW4.8 kmh SSW
Wind Gusts 20.4 mph32.8 kmh -- 9.0 mph14.5 kmh
Humidity 92% 70% 79%
Pressure 29.92 in1013.2 mb 29.74 in1007.1 mb -
Precipitation 0.00 in0.0 mm - -
Hour Temp Dew Point Humidity Winds Wind Gusts Pressure Precip Precip Rate Daily Precip Total
12:00 AM 67.5°F19.7°C 58.5°F14.7°C 73% 3.8 mph SSE6.1 kmh SSE 11.1 mph17.9 kmh 29.80 in1009.1 mb 0.00 in0.0 mm 0.00 in0.0 mm 0.00 in0.0 mm
12:10 AM 67.3°F19.6°C 58.7°F14.8°C 74% 5.4 mph SSE8.7 kmh SSE 12.9 mph20.8 kmh 29.80 in1009.1 mb 0.00 in0.0 mm 0.00 in0.0 mm 0.00 in0.0 mm
12:20 AM 66.9°F19.4°C 58.7°F14.8°C 75% 5.2 mph S8.4 kmh S 13.6 mph21.9 kmh 29.80 in1009.1 mb 0.00 in0.0 mm 0.00 in0.0 mm 0.00 in0.0 mm
12:30 AM 66.6°F19.2°C 58.4°F14.7°C 75% 5.0 mph SSE8.0 kmh SSE 11.8 mph19.0 kmh 29.77 in1008.1 mb 0.00 in0.0 mm 0.00 in0.0 mm 0.00 in0.0 mm
12:40 AM 66.2°F19.0°C 58.0°F14.4°C 75% 4.0 mph SE6.4 kmh SE 10.4 mph16.7 kmh 29.77 in1008.1 mb 0.00 in0.0 mm 0.00 in0.0 mm 0.00 in0.0 mm
12:50 AM 65.7°F18.7°C 58.3°F14.6°C 77% 2.9 mph SE4.7 kmh SE 12.2 mph19.6 kmh 29.77 in1008.1 mb 0.00 in0.0 mm 0.00 in0.0 mm 0.00 in0.0 mm
01:00 AM 65.7°F18.7°C 58.3°F14.6°C 77% 3.4 mph SE5.5 kmh SE 9.3 mph15.0 kmh 29.77 in1008.1 mb 0.00 in0.0 mm 0.00 in0.0 mm 0.00 in0.0 mm
01:10 AM 65.3°F18.5°C 57.9°F14.4°C 77% 3.7 mph ESE6.0 kmh ESE 9.3 mph15.0 kmh 29.77 in1008.1 mb 0.00 in0.0 mm 0.00 in0.0 mm 0.00 in0.0 mm
01:20 AM 65.1°F18.4°C 58.1°F14.5°C 78% 3.0 mph ESE4.8 kmh ESE 9.7 mph15.6 kmh 29.77 in1008.1 mb 0.00 in0.0 mm 0.00 in0.0 mm 0.00 in0.0 mm
01:30 AM 64.9°F18.3°C 57.9°F14.4°C 78% 2.0 mph SE3.2 kmh SE 6.8 mph10.9 kmh 29.74 in1007.1 mb 0.00 in0.0 mm 0.00 in0.0 mm 0.00 in0.0 mm
01:40 AM 64.6°F18.1°C 57.9°F14.4°C 79% 1.3 mph ESE2.1 kmh ESE 6.8 mph10.9 kmh 29.74 in1007.1 mb 0.00 in0.0 mm 0.00 in0.0 mm 0.00 in0.0 mm
01:50 AM 64.4°F18.0°C 57.7°F14.3°C 79% 1.5 mph E2.4 kmh E 6.8 mph10.9 kmh 29.77 in1008.1 mb 0.00 in0.0 mm 0.00 in0.0 mm 0.00 in0.0 mm
02:00 AM 64.0°F17.8°C 58.1°F14.5°C 81% 0.5 mph S0.8 kmh S 4.7 mph7.6 kmh 29.77 in1008.1 mb 0.00 in0.0 mm 0.00 in0.0 mm 0.00 in0.0 mm
02:10 AM 63.9°F17.7°C 57.9°F14.4°C 81% 0.2 mph SE0.3 kmh SE 5.0 mph8.0 kmh 29.77 in1008.1 mb 0.00 in0.0 mm 0.00 in0.0 mm 0.00 in0.0 mm
02:20 AM 63.7°F17.6°C 58.1°F14.5°C 82% 0.8 mph SE1.3 kmh SE 4.7 mph7.6 kmh 29.77 in1008.1 mb 0.00 in0.0 mm 0.00 in0.0 mm 0.00 in0.0 mm
02:30 AM 63.5°F17.5°C 57.6°F14.2°C 81% Calm Calm -- 29.77 in1008.1 mb 0.00 in0.0 mm 0.00 in0.0 mm 0.00 in0.0 mm
02:40 AM 63.1°F17.3°C 57.6°F14.2°C 82% 2.1 mph E3.4 kmh E 8.9 mph14.3 kmh 29.77 in1008.1 mb 0.00 in0.0 mm 0.00 in0.0 mm 0.00 in0.0 mm
02:50 AM 63.0°F17.2°C 57.7°F14.3°C 83% 5.7 mph E9.2 kmh E 10.7 mph17.2 kmh 29.77 in1008.1 mb 0.00 in0.0 mm 0.00 in0.0 mm 0.00 in0.0 mm
03:00 AM 63.0°F17.2°C 57.7°F14.3°C 83% 3.4 mph E5.5 kmh E 9.7 mph15.6 kmh 29.77 in1008.1 mb 0.00 in0.0 mm 0.00 in0.0 mm 0.00 in0.0 mm
03:10 AM 62.6°F17.0°C 57.4°F14.1°C 83% 1.8 mph E2.9 kmh E 8.9 mph14.3 kmh 29.77 in1008.1 mb 0.00 in0.0 mm 0.00 in0.0 mm 0.00 in0.0 mm
03:20 AM 61.9°F16.6°C 56.7°F13.7°C 83% 0.2 mph E0.3 kmh E 4.3 mph6.9 kmh 29.77 in1008.1 mb 0.00 in0.0 mm 0.00 in0.0 mm 0.00 in0.0 mm
03:30 AM 61.3°F16.3°C 56.1°F13.4°C 83% Calm Calm -- 29.77 in1008.1 mb 0.00 in0.0 mm 0.00 in0.0 mm 0.00 in0.0 mm
03:40 AM 61.0°F16.1°C 56.1°F13.4°C 84% 0.8 mph SE1.3 kmh SE 6.8 mph10.9 kmh 29.77 in1008.1 mb 0.00 in0.0 mm 0.00 in0.0 mm 0.00 in0.0 mm
03:50 AM 60.6°F15.9°C 56.1°F13.4°C 85% 2.4 mph E3.9 kmh E 6.8 mph10.9 kmh 29.77 in1008.1 mb 0.00 in0.0 mm 0.00 in0.0 mm 0.00 in0.0 mm
04:00 AM 60.6°F15.9°C 56.4°F13.6°C 86% 1.9 mph E3.1 kmh E 7.9 mph12.7 kmh 29.74 in1007.1 mb 0.00 in0.0 mm 0.00 in0.0 mm 0.00 in0.0 mm
04:10 AM 60.4°F15.8°C 56.6°F13.7°C 87% 0.2 mph E0.3 kmh E 5.4 mph8.7 kmh 29.74 in1007.1 mb 0.00 in0.0 mm 0.00 in0.0 mm 0.00 in0.0 mm
04:20 AM 60.4°F15.8°C 56.6°F13.7°C 87% 1.1 mph E1.8 kmh E 6.4 mph10.3 kmh 29.77 in1008.1 mb 0.00 in0.0 mm 0.00 in0.0 mm 0.00 in0.0 mm
04:30 AM 60.4°F15.8°C 56.9°F13.8°C 88% 4.9 mph SE7.9 kmh SE 7.9 mph12.7 kmh 29.74 in1007.1 mb 0.00 in0.0 mm 0.00 in0.0 mm 0.00 in0.0 mm
04:40 AM 60.8°F16.0°C 57.8°F14.3°C 90% 4.3 mph ESE6.9 kmh ESE 10.0 mph16.1 kmh 29.74 in1007.1 mb 0.00 in0.0 mm 0.00 in0.0 mm 0.00 in0.0 mm
04:50 AM 61.2°F16.2°C 58.5°F14.7°C 91% 6.6 mph ESE10.6 kmh ESE 10.0 mph16.1 kmh 29.74 in1007.1 mb 0.00 in0.0 mm 0.00 in0.0 mm 0.00 in0.0 mm
05:00 AM 61.9°F16.6°C 59.5°F15.3°C 92% 5.9 mph SE9.5 kmh SE 10.0 mph16.1 kmh 29.74 in1007.1 mb 0.00 in0.0 mm 0.00 in0.0 mm 0.00 in0.0 mm
05:10 AM 62.6°F17.0°C 59.9°F15.5°C 91% 1.6 mph E2.6 kmh E 7.5 mph12.1 kmh 29.74 in1007.1 mb 0.00 in0.0 mm 0.00 in0.0 mm 0.00 in0.0 mm
05:20 AM 63.3°F17.4°C 60.6°F15.9°C 91% 0.5 mph E0.8 kmh E 4.7 mph7.6 kmh 29.74 in1007.1 mb 0.00 in0.0 mm 0.00 in0.0 mm 0.00 in0.0 mm
05:30 AM 64.0°F17.8°C 61.4°F16.3°C 91% 0.2 mph E0.3 kmh E 3.6 mph5.8 kmh 29.77 in1008.1 mb 0.00 in0.0 mm 0.00 in0.0 mm 0.00 in0.0 mm
05:40 AM 64.2°F17.9°C 60.9°F16.1°C 89% Calm Calm -- 29.77 in1008.1 mb 0.00 in0.0 mm 0.00 in0.0 mm 0.00 in0.0 mm
05:50 AM 64.4°F18.0°C 60.8°F16.0°C 88% 0.1 mph S0.2 kmh S 1.4 mph2.3 kmh 29.77 in1008.1 mb 0.00 in0.0 mm 0.00 in0.0 mm 0.00 in0.0 mm
06:00 AM 65.1°F18.4°C 61.5°F16.4°C 88% 0.3 mph S0.5 kmh S 3.6 mph5.8 kmh 29.74 in1007.1 mb 0.00 in0.0 mm 0.00 in0.0 mm 0.00 in0.0 mm
06:10 AM 66.2°F19.0°C 61.9°F16.6°C 86% 0.8 mph WSW1.3 kmh WSW 5.4 mph8.7 kmh 29.74 in1007.1 mb 0.00 in0.0 mm 0.00 in0.0 mm 0.00 in0.0 mm
06:20 AM 66.7°F19.3°C 61.4°F16.3°C 83% 1.8 mph S2.9 kmh S 7.9 mph12.7 kmh 29.74 in1007.1 mb 0.00 in0.0 mm 0.00 in0.0 mm 0.00 in0.0 mm
06:30 AM 67.5°F19.7°C 61.1°F16.2°C 80% 3.2 mph S5.1 kmh S 9.7 mph15.6 kmh 29.74 in1007.1 mb 0.00 in0.0 mm 0.00 in0.0 mm 0.00 in0.0 mm
06:40 AM 67.5°F19.7°C 60.7°F15.9°C 79% 2.9 mph S4.7 kmh S 6.8 mph10.9 kmh 29.74 in1007.1 mb 0.00 in0.0 mm 0.00 in0.0 mm 0.00 in0.0 mm
06:50 AM 67.1°F19.5°C 60.7°F15.9°C 80% 2.8 mph S4.5 kmh S 6.8 mph10.9 kmh 29.74 in1007.1 mb 0.00 in0.0 mm 0.00 in0.0 mm 0.00 in0.0 mm
07:00 AM 67.1°F19.5°C 60.7°F15.9°C 80% 2.9 mph S4.7 kmh S 8.9 mph14.3 kmh 29.74 in1007.1 mb 0.00 in0.0 mm 0.00 in0.0 mm 0.00 in0.0 mm
07:10 AM 66.9°F19.4°C 60.5°F15.8°C 80% 1.7 mph S2.7 kmh S 9.3 mph15.0 kmh 29.74 in1007.1 mb 0.00 in0.0 mm 0.00 in0.0 mm 0.00 in0.0 mm
07:20 AM 66.7°F19.3°C 60.4°F15.8°C 80% 2.1 mph S3.4 kmh S 9.7 mph15.6 kmh 29.77 in1008.1 mb 0.00 in0.0 mm 0.00 in0.0 mm 0.00 in0.0 mm
07:30 AM 66.6°F19.2°C 60.5°F15.8°C 81% 1.6 mph SE2.6 kmh SE 7.5 mph12.1 kmh 29.74 in1007.1 mb 0.00 in0.0 mm 0.00 in0.0 mm 0.00 in0.0 mm
07:40 AM 66.4°F19.1°C 60.4°F15.8°C 81% 1.1 mph SSE1.8 kmh SSE 6.4 mph10.3 kmh 29.74 in1007.1 mb 0.00 in0.0 mm 0.00 in0.0 mm 0.00 in0.0 mm
07:50 AM 66.0°F18.9°C 60.7°F15.9°C 83% 1.4 mph S2.3 kmh S 6.8 mph10.9 kmh 29.77 in1008.1 mb 0.00 in0.0 mm 0.00 in0.0 mm 0.00 in0.0 mm
08:00 AM 66.0°F18.9°C 61.0°F16.1°C 84% 1.1 mph S1.8 kmh S 4.3 mph6.9 kmh 29.77 in1008.1 mb 0.00 in0.0 mm 0.00 in0.0 mm 0.00 in0.0 mm
08:10 AM 66.0°F18.9°C 61.0°F16.1°C 84% 1.6 mph S2.6 kmh S 7.9 mph12.7 kmh 29.77 in1008.1 mb 0.00 in0.0 mm 0.00 in0.0 mm 0.00 in0.0 mm
08:20 AM 66.2°F19.0°C 61.2°F16.2°C 84% 2.3 mph S3.7 kmh S 6.1 mph9.8 kmh 29.77 in1008.1 mb 0.00 in0.0 mm 0.00 in0.0 mm 0.00 in0.0 mm
08:30 AM 66.7°F19.3°C 61.7°F16.5°C 84% 2.4 mph SSW3.9 kmh SSW 10.0 mph16.1 kmh 29.77 in1008.1 mb 0.00 in0.0 mm 0.00 in0.0 mm 0.00 in0.0 mm
08:40 AM 67.1°F19.5°C 61.8°F16.6°C 83% 2.6 mph S4.2 kmh S 8.6 mph13.8 kmh 29.77 in1008.1 mb 0.00 in0.0 mm 0.00 in0.0 mm 0.00 in0.0 mm
08:50 AM 67.5°F19.7°C 62.1°F16.7°C 83% 1.3 mph SW2.1 kmh SW 5.7 mph9.2 kmh 29.74 in1007.1 mb 0.00 in0.0 mm 0.00 in0.0 mm 0.00 in0.0 mm
09:00 AM 67.8°F19.9°C 61.8°F16.6°C 81% 0.1 mph S0.2 kmh S 2.5 mph4.0 kmh 29.74 in1007.1 mb 0.00 in0.0 mm 0.00 in0.0 mm 0.00 in0.0 mm
09:10 AM 68.4°F20.2°C 62.3°F16.8°C 81% 0.2 mph SW0.3 kmh SW 3.9 mph6.3 kmh 29.74 in1007.1 mb 0.00 in0.0 mm 0.00 in0.0 mm 0.00 in0.0 mm
09:20 AM 69.1°F20.6°C 62.6°F17.0°C 80% 0.7 mph S1.1 kmh S 4.3 mph6.9 kmh 29.74 in1007.1 mb 0.00 in0.0 mm 0.00 in0.0 mm 0.00 in0.0 mm
09:30 AM 70.2°F21.2°C 63.0°F17.2°C 78% 1.8 mph W2.9 kmh W 5.7 mph9.2 kmh 29.77 in1008.1 mb 0.00 in0.0 mm 0.00 in0.0 mm 0.00 in0.0 mm
09:40 AM 71.2°F21.8°C 62.9°F17.2°C 75% 2.9 mph W4.7 kmh W 9.7 mph15.6 kmh 29.77 in1008.1 mb 0.00 in0.0 mm 0.00 in0.0 mm 0.00 in0.0 mm
09:50 AM 71.8°F22.1°C 63.0°F17.2°C 74% 4.4 mph SW7.1 kmh SW 9.7 mph15.6 kmh 29.77 in1008.1 mb 0.00 in0.0 mm 0.00 in0.0 mm 0.00 in0.0 mm
10:00 AM 71.8°F22.1°C 62.7°F17.1°C 73% 3.4 mph SW5.5 kmh SW 8.9 mph14.3 kmh 29.77 in1008.1 mb 0.00 in0.0 mm 0.00 in0.0 mm 0.00 in0.0 mm
10:10 AM 71.8°F22.1°C 63.0°F17.2°C 74% 6.0 mph SW9.7 kmh SW 16.1 mph25.9 kmh 29.77 in1008.1 mb 0.00 in0.0 mm 0.00 in0.0 mm 0.00 in0.0 mm
10:20 AM 71.6°F22.0°C 62.1°F16.7°C 72% 5.1 mph SW8.2 kmh SW 12.5 mph20.1 kmh 29.77 in1008.1 mb 0.00 in0.0 mm 0.00 in0.0 mm 0.00 in0.0 mm
10:30 AM 70.5°F21.4°C 61.8°F16.6°C 74% 5.6 mph WSW9.0 kmh WSW 10.4 mph16.7 kmh 29.77 in1008.1 mb 0.00 in0.0 mm 0.00 in0.0 mm 0.00 in0.0 mm
10:40 AM 70.5°F21.4°C 62.6°F17.0°C 76% 4.9 mph SSW7.9 kmh SSW 11.5 mph18.5 kmh 29.77 in1008.1 mb 0.00 in0.0 mm 0.00 in0.0 mm 0.00 in0.0 mm
10:50 AM 71.2°F21.8°C 62.9°F17.2°C 75% 5.4 mph S8.7 kmh S 10.4 mph16.7 kmh 29.77 in1008.1 mb 0.00 in0.0 mm 0.00 in0.0 mm 0.00 in0.0 mm
11:00 AM 71.8°F22.1°C 63.0°F17.2°C 74% 5.1 mph SW8.2 kmh SW 10.4 mph16.7 kmh 29.77 in1008.1 mb 0.00 in0.0 mm 0.00 in0.0 mm 0.00 in0.0 mm
11:10 AM 72.0°F22.2°C 62.8°F17.1°C 73% 3.3 mph SW5.3 kmh SW 12.9 mph20.8 kmh 29.77 in1008.1 mb 0.00 in0.0 mm 0.00 in0.0 mm 0.00 in0.0 mm
11:20 AM 72.0°F22.2°C 63.2°F17.3°C 74% 3.2 mph SW5.1 kmh SW 8.6 mph13.8 kmh 29.74 in1007.1 mb 0.00 in0.0 mm 0.00 in0.0 mm 0.00 in0.0 mm
11:30 AM 72.1°F22.3°C 63.0°F17.2°C 73% 4.0 mph WSW6.4 kmh WSW 10.4 mph16.7 kmh 29.77 in1008.1 mb 0.00 in0.0 mm 0.00 in0.0 mm 0.00 in0.0 mm
11:40 AM 71.6°F22.0°C 62.9°F17.2°C 74% 5.7 mph W9.2 kmh W 11.5 mph18.5 kmh 29.77 in1008.1 mb 0.00 in0.0 mm 0.00 in0.0 mm 0.00 in0.0 mm
11:50 AM 71.2°F21.8°C 62.5°F16.9°C 74% 5.8 mph S9.3 kmh S 11.8 mph19.0 kmh 29.77 in1008.1 mb 0.00 in0.0 mm 0.00 in0.0 mm 0.00 in0.0 mm
12:00 PM 71.8°F22.1°C 63.0°F17.2°C 74% 4.9 mph SSW7.9 kmh SSW 11.5 mph18.5 kmh 29.77 in1008.1 mb 0.00 in0.0 mm 0.00 in0.0 mm 0.00 in0.0 mm
12:10 PM 71.8°F22.1°C 62.7°F17.1°C 73% 5.0 mph SSW8.0 kmh SSW 14.0 mph22.5 kmh 29.77 in1008.1 mb 0.00 in0.0 mm 0.00 in0.0 mm 0.00 in0.0 mm
12:20 PM 71.8°F22.1°C 63.0°F17.2°C 74% 5.1 mph SSW8.2 kmh SSW 13.6 mph21.9 kmh 29.77 in1008.1 mb 0.00 in0.0 mm 0.00 in0.0 mm 0.00 in0.0 mm
12:30 PM 71.4°F21.9°C 63.1°F17.3°C 75% 5.8 mph S9.3 kmh S 12.9 mph20.8 kmh 29.77 in1008.1 mb 0.00 in0.0 mm 0.00 in0.0 mm 0.00 in0.0 mm
12:40 PM 71.8°F22.1°C 64.2°F17.9°C 77% 6.0 mph S9.7 kmh S 12.9 mph20.8 kmh 29.77 in1008.1 mb 0.00 in0.0 mm 0.00 in0.0 mm 0.00 in0.0 mm
12:50 PM 71.8°F22.1°C 63.4°F17.4°C 75% 6.5 mph SW10.5 kmh SW 13.6 mph21.9 kmh 29.77 in1008.1 mb 0.00 in0.0 mm 0.00 in0.0 mm 0.00 in0.0 mm
01:00 PM 71.6°F22.0°C 62.9°F17.2°C 74% 7.1 mph SSW11.4 kmh SSW 17.2 mph27.7 kmh 29.80 in1009.1 mb 0.00 in0.0 mm 0.00 in0.0 mm 0.00 in0.0 mm
01:10 PM 71.8°F22.1°C 63.0°F17.2°C 74% 4.8 mph SW7.7 kmh SW 11.8 mph19.0 kmh 29.80 in1009.1 mb 0.00 in0.0 mm 0.00 in0.0 mm 0.00 in0.0 mm
01:20 PM 71.6°F22.0°C 62.9°F17.2°C 74% 3.9 mph WSW6.3 kmh WSW 11.5 mph18.5 kmh 29.77 in1008.1 mb 0.00 in0.0 mm 0.00 in0.0 mm 0.00 in0.0 mm
01:30 PM 71.4°F21.9°C 62.3°F16.8°C 73% 4.7 mph SW7.6 kmh SW 10.4 mph16.7 kmh 29.77 in1008.1 mb 0.00 in0.0 mm 0.00 in0.0 mm 0.00 in0.0 mm
01:40 PM 71.6°F22.0°C 62.5°F16.9°C 73% 4.3 mph SW6.9 kmh SW 11.1 mph17.9 kmh 29.77 in1008.1 mb 0.00 in0.0 mm 0.00 in0.0 mm 0.00 in0.0 mm
01:50 PM 71.8°F22.1°C 62.7°F17.1°C 73% 6.3 mph SW10.1 kmh SW 16.1 mph25.9 kmh 29.80 in1009.1 mb 0.00 in0.0 mm 0.00 in0.0 mm 0.00 in0.0 mm
02:00 PM 71.8°F22.1°C 62.7°F17.1°C 73% 5.1 mph S8.2 kmh S 12.5 mph20.1 kmh 29.80 in1009.1 mb 0.00 in0.0 mm 0.00 in0.0 mm 0.00 in0.0 mm
02:10 PM 71.2°F21.8°C 61.4°F16.3°C 71% 6.6 mph S10.6 kmh S 13.6 mph21.9 kmh 29.80 in1009.1 mb 0.00 in0.0 mm 0.00 in0.0 mm 0.00 in0.0 mm
02:20 PM 70.9°F21.6°C 60.6°F15.9°C 70% 6.5 mph SW10.5 kmh SW 13.6 mph21.9 kmh 29.80 in1009.1 mb 0.00 in0.0 mm 0.00 in0.0 mm 0.00 in0.0 mm
02:30 PM 70.9°F21.6°C 61.0°F16.1°C 71% 4.8 mph WSW7.7 kmh WSW 12.2 mph19.6 kmh 29.80 in1009.1 mb 0.00 in0.0 mm 0.00 in0.0 mm 0.00 in0.0 mm
02:40 PM 71.1°F21.7°C 61.2°F16.2°C 71% 5.1 mph SW8.2 kmh SW 12.5 mph20.1 kmh 29.80 in1009.1 mb 0.00 in0.0 mm 0.00 in0.0 mm 0.00 in0.0 mm
02:50 PM 71.2°F21.8°C 62.1°F16.7°C 73% 3.5 mph SW5.6 kmh SW 10.0 mph16.1 kmh 29.80 in1009.1 mb 0.00 in0.0 mm 0.00 in0.0 mm 0.00 in0.0 mm
03:00 PM 71.4°F21.9°C 63.1°F17.3°C 75% 4.6 mph SW7.4 kmh SW 12.2 mph19.6 kmh 29.80 in1009.1 mb 0.00 in0.0 mm 0.00 in0.0 mm 0.00 in0.0 mm
03:10 PM 71.1°F21.7°C 62.0°F16.7°C 73% 5.2 mph WSW8.4 kmh WSW 12.9 mph20.8 kmh 29.80 in1009.1 mb 0.00 in0.0 mm 0.00 in0.0 mm 0.00 in0.0 mm
03:20 PM 70.5°F21.4°C 61.4°F16.3°C 73% 3.1 mph SSW5.0 kmh SSW 8.6 mph13.8 kmh 29.80 in1009.1 mb 0.00 in0.0 mm 0.00 in0.0 mm 0.00 in0.0 mm
03:30 PM 71.4°F21.9°C 63.1°F17.3°C 75% 3.0 mph W4.8 kmh W 9.3 mph15.0 kmh 29.80 in1009.1 mb 0.00 in0.0 mm 0.00 in0.0 mm 0.00 in0.0 mm
03:40 PM 71.2°F21.8°C 62.1°F16.7°C 73% 5.3 mph WSW8.5 kmh WSW 12.5 mph20.1 kmh 29.80 in1009.1 mb 0.00 in0.0 mm 0.00 in0.0 mm 0.00 in0.0 mm
03:50 PM 70.5°F21.4°C 61.8°F16.6°C 74% 5.0 mph SW8.0 kmh SW 10.4 mph16.7 kmh 29.80 in1009.1 mb 0.00 in0.0 mm 0.00 in0.0 mm 0.00 in0.0 mm
04:00 PM 70.2°F21.2°C 61.1°F16.2°C 73% 3.7 mph WNW6.0 kmh WNW 9.7 mph15.6 kmh 29.80 in1009.1 mb 0.00 in0.0 mm 0.00 in0.0 mm 0.00 in0.0 mm
04:10 PM 70.0°F21.1°C 61.3°F16.3°C 74% 2.5 mph W4.0 kmh W 7.5 mph12.1 kmh 29.80 in1009.1 mb 0.00 in0.0 mm 0.00 in0.0 mm 0.00 in0.0 mm
04:20 PM 70.3°F21.3°C 61.7°F16.5°C 74% 3.2 mph WSW5.1 kmh WSW 9.7 mph15.6 kmh 29.80 in1009.1 mb 0.00 in0.0 mm 0.00 in0.0 mm 0.00 in0.0 mm
04:30 PM 71.2°F21.8°C 62.9°F17.2°C 75% 2.5 mph NW4.0 kmh NW 10.4 mph16.7 kmh 29.80 in1009.1 mb 0.00 in0.0 mm 0.00 in0.0 mm 0.00 in0.0 mm
04:40 PM 71.1°F21.7°C 61.6°F16.4°C 72% 4.1 mph WSW6.6 kmh WSW 11.5 mph18.5 kmh 29.80 in1009.1 mb 0.00 in0.0 mm 0.00 in0.0 mm 0.00 in0.0 mm
04:50 PM 71.2°F21.8°C 62.5°F16.9°C 74% 4.5 mph WSW7.2 kmh WSW 14.0 mph22.5 kmh 29.80 in1009.1 mb 0.00 in0.0 mm 0.00 in0.0 mm 0.00 in0.0 mm
05:00 PM 71.2°F21.8°C 61.4°F16.3°C 71% 4.1 mph W6.6 kmh W 11.8 mph19.0 kmh 29.80 in1009.1 mb 0.00 in0.0 mm 0.00 in0.0 mm 0.00 in0.0 mm
05:10 PM 71.4°F21.9°C 61.9°F16.6°C 72% 3.9 mph W6.3 kmh W 10.0 mph16.1 kmh 29.80 in1009.1 mb 0.00 in0.0 mm 0.00 in0.0 mm 0.00 in0.0 mm
05:20 PM 70.0°F21.1°C 59.7°F15.4°C 70% 4.0 mph W6.4 kmh W 11.1 mph17.9 kmh 29.80 in1009.1 mb 0.00 in0.0 mm 0.00 in0.0 mm 0.00 in0.0 mm
05:30 PM 69.1°F20.6°C 60.4°F15.8°C 74% 4.8 mph WSW7.7 kmh WSW 9.7 mph15.6 kmh 29.83 in1010.2 mb 0.00 in0.0 mm 0.00 in0.0 mm 0.00 in0.0 mm
05:40 PM 68.4°F20.2°C 60.5°F15.8°C 76% 2.9 mph WSW4.7 kmh WSW 7.9 mph12.7 kmh 29.83 in1010.2 mb 0.00 in0.0 mm 0.00 in0.0 mm 0.00 in0.0 mm
05:50 PM 68.0°F20.0°C 60.2°F15.7°C 76% 3.3 mph WSW5.3 kmh WSW 6.4 mph10.3 kmh 29.83 in1010.2 mb 0.00 in0.0 mm 0.00 in0.0 mm 0.00 in0.0 mm
06:00 PM 68.0°F20.0°C 60.5°F15.8°C 77% 2.7 mph WSW4.3 kmh WSW 7.5 mph12.1 kmh 29.83 in1010.2 mb 0.00 in0.0 mm 0.00 in0.0 mm 0.00 in0.0 mm
06:10 PM 67.8°F19.9°C 60.7°F15.9°C 78% 3.9 mph W6.3 kmh W 8.9 mph14.3 kmh 29.83 in1010.2 mb 0.00 in0.0 mm 0.00 in0.0 mm 0.00 in0.0 mm
06:20 PM 67.6°F19.8°C 60.5°F15.8°C 78% 3.1 mph WNW5.0 kmh WNW 7.5 mph12.1 kmh 29.83 in1010.2 mb 0.00 in0.0 mm 0.00 in0.0 mm 0.00 in0.0 mm
06:30 PM 67.3°F19.6°C 60.5°F15.8°C 79% 3.7 mph WNW6.0 kmh WNW 10.0 mph16.1 kmh 29.83 in1010.2 mb 0.00 in0.0 mm 0.00 in0.0 mm 0.00 in0.0 mm
06:40 PM 66.9°F19.4°C 59.8°F15.4°C 78% 4.4 mph NW7.1 kmh NW 16.5 mph26.6 kmh 29.83 in1010.2 mb 0.00 in0.0 mm 0.00 in0.0 mm 0.00 in0.0 mm
06:50 PM 66.4°F19.1°C 59.3°F15.2°C 78% 3.1 mph WNW5.0 kmh WNW 12.2 mph19.6 kmh 29.83 in1010.2 mb 0.00 in0.0 mm 0.00 in0.0 mm 0.00 in0.0 mm
07:00 PM 65.8°F18.8°C 59.1°F15.1°C 79% 4.8 mph W7.7 kmh W 12.9 mph20.8 kmh 29.83 in1010.2 mb 0.00 in0.0 mm 0.00 in0.0 mm 0.00 in0.0 mm
07:10 PM 65.3°F18.5°C 59.0°F15.0°C 80% 4.4 mph WNW7.1 kmh WNW 12.5 mph20.1 kmh 29.83 in1010.2 mb 0.00 in0.0 mm 0.00 in0.0 mm 0.00 in0.0 mm
07:20 PM 64.8°F18.2°C 58.1°F14.5°C 79% 6.2 mph WNW10.0 kmh WNW 14.0 mph22.5 kmh 29.80 in1009.1 mb 0.00 in0.0 mm 0.00 in0.0 mm 0.00 in0.0 mm
07:30 PM 64.4°F18.0°C 58.1°F14.5°C 80% 5.7 mph W9.2 kmh W 11.8 mph19.0 kmh 29.83 in1010.2 mb 0.00 in0.0 mm 0.00 in0.0 mm 0.00 in0.0 mm
07:40 PM 63.9°F17.7°C 57.9°F14.4°C 81% 5.1 mph NW8.2 kmh NW 11.8 mph19.0 kmh 29.83 in1010.2 mb 0.00 in0.0 mm 0.00 in0.0 mm 0.00 in0.0 mm
07:50 PM 63.7°F17.6°C 58.1°F14.5°C 82% 5.0 mph WNW8.0 kmh WNW 12.9 mph20.8 kmh 29.83 in1010.2 mb 0.00 in0.0 mm 0.00 in0.0 mm 0.00 in0.0 mm
08:00 PM 63.5°F17.5°C 57.9°F14.4°C 82% 4.8 mph W7.7 kmh W 10.4 mph16.7 kmh 29.86 in1011.2 mb 0.00 in0.0 mm 0.00 in0.0 mm 0.00 in0.0 mm
08:10 PM 63.5°F17.5°C 58.2°F14.6°C 83% 4.1 mph WNW6.6 kmh WNW 8.9 mph14.3 kmh 29.86 in1011.2 mb 0.00 in0.0 mm 0.00 in0.0 mm 0.00 in0.0 mm
08:20 PM 63.7°F17.6°C 58.1°F14.5°C 82% 4.5 mph WNW7.2 kmh WNW 12.2 mph19.6 kmh 29.83 in1010.2 mb 0.00 in0.0 mm 0.00 in0.0 mm 0.00 in0.0 mm
08:30 PM 63.3°F17.4°C 56.7°F13.7°C 79% 4.4 mph WNW7.1 kmh WNW 20.4 mph32.8 kmh 29.83 in1010.2 mb 0.00 in0.0 mm 0.00 in0.0 mm 0.00 in0.0 mm
08:40 PM 62.6°F17.0°C 56.0°F13.3°C 79% 3.4 mph WNW5.5 kmh WNW 11.5 mph18.5 kmh 29.83 in1010.2 mb 0.00 in0.0 mm 0.00 in0.0 mm 0.00 in0.0 mm
08:50 PM 61.9°F16.6°C 56.0°F13.3°C 81% 4.0 mph WNW6.4 kmh WNW 10.4 mph16.7 kmh 29.86 in1011.2 mb 0.00 in0.0 mm 0.00 in0.0 mm 0.00 in0.0 mm
09:00 PM 61.5°F16.4°C 56.0°F13.3°C 82% 3.1 mph W5.0 kmh W 11.5 mph18.5 kmh 29.86 in1011.2 mb 0.00 in0.0 mm 0.00 in0.0 mm 0.00 in0.0 mm
09:10 PM 61.3°F16.3°C 56.1°F13.4°C 83% 2.1 mph W3.4 kmh W 6.8 mph10.9 kmh 29.86 in1011.2 mb 0.00 in0.0 mm 0.00 in0.0 mm 0.00 in0.0 mm
09:20 PM 61.0°F16.1°C 55.8°F13.2°C 83% 3.0 mph WNW4.8 kmh WNW 10.4 mph16.7 kmh 29.89 in1012.2 mb 0.00 in0.0 mm 0.00 in0.0 mm 0.00 in0.0 mm
09:30 PM 60.4°F15.8°C 55.3°F12.9°C 83% 2.0 mph WNW3.2 kmh WNW 9.7 mph15.6 kmh 29.89 in1012.2 mb 0.00 in0.0 mm 0.00 in0.0 mm 0.00 in0.0 mm
09:40 PM 60.1°F15.6°C 55.2°F12.9°C 84% 3.1 mph W5.0 kmh W 10.0 mph16.1 kmh 29.89 in1012.2 mb 0.00 in0.0 mm 0.00 in0.0 mm 0.00 in0.0 mm
09:50 PM 59.7°F15.4°C 54.9°F12.7°C 84% 3.5 mph W5.6 kmh W 9.7 mph15.6 kmh 29.89 in1012.2 mb 0.00 in0.0 mm 0.00 in0.0 mm 0.00 in0.0 mm
10:00 PM 59.5°F15.3°C 54.7°F12.6°C 84% 3.2 mph WNW5.1 kmh WNW 10.4 mph16.7 kmh 29.89 in1012.2 mb 0.00 in0.0 mm 0.00 in0.0 mm 0.00 in0.0 mm
10:10 PM 59.2°F15.1°C 54.0°F12.2°C 83% 3.7 mph WNW6.0 kmh WNW 12.9 mph20.8 kmh 29.89 in1012.2 mb 0.00 in0.0 mm 0.00 in0.0 mm 0.00 in0.0 mm
10:20 PM 58.8°F14.9°C 53.7°F12.1°C 83% 3.3 mph W5.3 kmh W 10.4 mph16.7 kmh 29.86 in1011.2 mb 0.00 in0.0 mm 0.00 in0.0 mm 0.00 in0.0 mm
10:30 PM 58.6°F14.8°C 53.5°F11.9°C 83% 3.2 mph WNW5.1 kmh WNW 9.3 mph15.0 kmh 29.89 in1012.2 mb 0.00 in0.0 mm 0.00 in0.0 mm 0.00 in0.0 mm
10:40 PM 58.3°F14.6°C 52.8°F11.6°C 82% 3.0 mph WNW4.8 kmh WNW 8.6 mph13.8 kmh 29.89 in1012.2 mb 0.00 in0.0 mm 0.00 in0.0 mm 0.00 in0.0 mm
10:50 PM 57.7°F14.3°C 52.6°F11.4°C 83% 1.8 mph W2.9 kmh W 6.4 mph10.3 kmh 29.89 in1012.2 mb 0.00 in0.0 mm 0.00 in0.0 mm 0.00 in0.0 mm
11:00 PM 57.4°F14.1°C 52.3°F11.3°C 83% 1.7 mph W2.7 kmh W 7.9 mph12.7 kmh 29.92 in1013.2 mb 0.00 in0.0 mm 0.00 in0.0 mm 0.00 in0.0 mm
11:10 PM 57.0°F13.9°C 51.9°F11.1°C 83% 1.4 mph W2.3 kmh W 5.0 mph8.0 kmh 29.92 in1013.2 mb 0.00 in0.0 mm 0.00 in0.0 mm 0.00 in0.0 mm
11:20 PM 56.7°F13.7°C 51.6°F10.9°C 83% 2.0 mph W3.2 kmh W 6.8 mph10.9 kmh 29.92 in1013.2 mb 0.00 in0.0 mm 0.00 in0.0 mm 0.00 in0.0 mm
11:30 PM 56.3°F13.5°C 51.2°F10.7°C 83% 1.2 mph W1.9 kmh W 6.1 mph9.8 kmh 29.92 in1013.2 mb 0.00 in0.0 mm 0.00 in0.0 mm 0.00 in0.0 mm
11:40 PM 56.1°F13.4°C 51.4°F10.8°C 84% 0.8 mph W1.3 kmh W 5.4 mph8.7 kmh 29.92 in1013.2 mb 0.00 in0.0 mm 0.00 in0.0 mm 0.00 in0.0 mm
11:50 PM 55.8°F13.2°C 51.0°F10.6°C 84% Calm Calm 2.5 mph4.0 kmh 29.92 in1013.2 mb 0.00 in0.0 mm 0.00 in0.0 mm 0.00 in0.0 mm